Time;durP1;ratioP1;P1;durP2;ratioP2;P2;SDS_P1;SDS_P2;PMS_P1;PMS_P2;Temp;Humidity;BMP_temperature;BMP_pressure;BME280_temperature;BME280_humidity;BME280_pressure;Samples;Min_cycle;Max_cycle;Signal;HPM_P1;HPM_P2
2022/01/24 00:00:14;;;;;;;0.30;0.30;;;;;;;18.30;41.54;103052.44;5136905;27;20047;-26
2022/01/24 00:02:42;;;;;;;0.30;0.30;;;;;;;18.30;41.62;103060.72;5115470;27;20453;-27
2022/01/24 00:05:08;;;;;;;0.20;0.20;;;;;;;18.30;41.64;103056.03;5133847;27;20047;-27
2022/01/24 00:07:34;;;;;;;0.38;0.38;;;;;;;18.31;41.65;103059.66;5119402;27;20053;-27
2022/01/24 00:10:03;;;;;;;0.30;0.30;;;;;;;18.30;41.75;103060.72;5137158;27;20079;-27
2022/01/24 00:12:39;;;;;;;0.32;0.32;;;;;;;18.30;41.48;103056.03;5116406;27;20053;-27
2022/01/24 00:15:17;;;;;;;0.30;0.30;;;;;;;18.30;41.65;103053.28;5132677;27;20057;-27
2022/01/24 00:18:02;;;;;;;;;;;;;;;18.30;41.54;103057.97;5133124;27;20385;-27
2022/01/24 00:28:39;;;;;;;0.40;0.40;;;;;;;18.29;41.60;103046.09;5130068;27;20440;-27
2022/01/24 00:31:05;;;;;;;0.20;0.20;;;;;;;18.29;41.53;103048.84;5143652;27;20051;-27
2022/01/24 00:33:30;;;;;;;0.30;0.30;;;;;;;18.30;41.58;103045.00;5144137;27;20039;-27
2022/01/24 00:35:56;;;;;;;0.30;0.30;;;;;;;18.30;41.62;103046.94;5144826;27;21038;-27
2022/01/24 00:38:22;;;;;;;0.30;0.30;;;;;;;18.29;41.71;103046.09;5145921;27;20058;-26
2022/01/24 00:40:49;;;;;;;0.30;0.30;;;;;;;18.30;41.50;103046.94;5144383;27;20106;-26
2022/01/24 00:43:25;;;;;;;0.20;0.20;;;;;;;18.30;41.68;103044.16;5145053;27;20475;-27
2022/01/24 00:45:58;;;;;;;0.30;0.30;;;;;;;18.30;41.68;103055.19;5145069;27;20145;-27
2022/01/24 00:48:36;;;;;;;0.30;0.30;;;;;;;18.30;41.49;103046.94;5140302;27;20499;-27
2022/01/24 00:56:28;;;;;;;0.30;0.30;;;;;;;18.30;41.69;103046.94;5177747;27;20201;-27
2022/01/24 00:58:54;;;;;;;0.30;0.30;;;;;;;18.28;41.48;103040.81;5157501;27;20121;-26
2022/01/24 01:01:21;;;;;;;0.30;0.30;;;;;;;18.30;41.57;103041.41;5140372;27;20437;-26
2022/01/24 01:03:47;;;;;;;0.30;0.30;;;;;;;18.30;41.59;103039.50;5138756;27;20470;-26
2022/01/24 01:06:13;;;;;;;0.30;0.30;;;;;;;18.29;41.65;103040.56;5149738;27;20110;-27
2022/01/24 01:19:44;;;;;;;0.30;0.30;;;;;;;18.31;41.59;103026.56;5131813;27;20137;-27
2022/01/24 01:22:09;;;;;;;0.30;0.30;;;;;;;18.30;41.58;103017.41;5151656;27;20077;-27
2022/01/24 01:24:41;;;;;;;0.30;0.30;;;;;;;18.30;41.65;103028.47;5160790;27;20046;-27
2022/01/24 01:27:14;;;;;;;0.30;0.30;;;;;;;18.30;41.46;103022.94;5149175;27;20043;-26
2022/01/24 01:29:50;;;;;;;0.30;0.30;;;;;;;18.30;42.02;103024.84;5153557;27;20043;-27
2022/01/24 01:32:32;;;;;;;0.40;0.40;;;;;;;18.30;41.55;103025.69;5152776;27;20054;-27
2022/01/24 01:35:30;;;;;;;0.30;0.30;;;;;;;18.30;41.48;103030.38;5155380;27;20106;-27
2022/01/24 01:54:49;;;;;;;0.30;0.30;;;;;;;18.29;41.75;103036.97;5134886;27;20043;-26
2022/01/24 01:57:03;;;;;;;0.30;0.30;;;;;;;18.28;41.69;103040.81;5135822;27;20039;-27
2022/01/24 01:59:29;;;;;;;0.20;0.20;;;;;;;18.29;41.69;103029.53;5154920;27;20108;-26
2022/01/24 02:01:54;;;;;;;0.30;0.30;;;;;;;18.29;41.83;103035.06;5135488;27;20062;-26
2022/01/24 02:04:20;;;;;;;0.30;0.30;;;;;;;18.29;41.68;103026.78;5150721;27;20050;-27
2022/01/24 02:06:46;;;;;;;0.30;0.30;;;;;;;18.29;41.59;103028.69;5144803;27;20047;-27
2022/01/24 02:09:13;;;;;;;0.30;0.30;;;;;;;18.29;41.59;103021.25;5141493;27;20095;-26
2022/01/24 02:11:39;;;;;;;0.20;0.20;;;;;;;18.31;41.61;103023.81;5139969;27;20031;-26
2022/01/24 02:14:10;;;;;;;0.30;0.30;;;;;;;18.30;41.66;103016.59;5141953;27;20338;-27
2022/01/24 02:16:50;;;;;;;0.20;0.20;;;;;;;18.31;41.53;103021.06;5137144;27;20046;-26
2022/01/24 02:19:29;;;;;;;0.20;0.20;;;;;;;18.29;41.67;103018.50;5144212;27;20046;-26
2022/01/24 02:22:17;;;;;;;0.30;0.30;;;;;;;18.29;41.56;103015.75;5143906;27;20394;-27
2022/01/24 02:24:51;;;;;;;0.30;0.30;;;;;;;18.29;41.71;103010.22;5132013;27;20051;-27
2022/01/24 02:27:18;;;;;;;0.30;0.30;;;;;;;18.30;41.68;103009.16;5142252;27;20051;-27
2022/01/24 02:30:06;;;;;;;0.28;0.28;;;;;;;18.30;41.60;103008.31;5147946;27;20433;-27
2022/01/24 02:32:29;;;;;;;0.28;0.28;;;;;;;18.30;41.39;103005.56;5124394;27;20045;-27
2022/01/24 02:34:55;;;;;;;0.30;0.30;;;;;;;18.30;41.21;103014.66;5143966;27;20043;-27
2022/01/24 02:37:22;;;;;;;0.30;0.30;;;;;;;18.29;41.52;103003.88;5146295;27;20051;-27
2022/01/24 02:39:55;;;;;;;0.30;0.30;;;;;;;18.30;41.40;103003.63;5146724;27;20041;-27
2022/01/24 02:48:28;;;;;;;0.20;0.20;;;;;;;18.29;41.54;103007.47;5127669;27;20042;-27
2022/01/24 02:53:28;;;;;;;0.30;0.30;;;;;;;18.29;41.59;103004.72;5110993;27;20091;-27
2022/01/24 02:55:54;;;;;;;0.20;0.20;;;;;;;18.28;41.60;102996.66;5109353;27;20043;-27
2022/01/24 02:58:20;;;;;;;0.30;0.30;;;;;;;18.29;41.49;102993.69;5147298;27;20047;-27
2022/01/24 03:00:47;;;;;;;0.30;0.30;;;;;;;18.29;41.57;102988.16;5142068;27;20159;-27
2022/01/24 03:03:15;;;;;;;0.20;0.20;;;;;;;18.29;41.39;102990.06;5123332;27;20062;-26
2022/01/24 03:05:41;;;;;;;0.30;0.30;;;;;;;18.30;41.49;102981.56;5118833;27;20387;-27
2022/01/24 03:08:07;;;;;;;0.20;0.20;;;;;;;18.29;41.47;102977.13;5142317;27;20045;-27
2022/01/24 03:10:38;;;;;;;0.30;0.30;;;;;;;18.30;41.52;102983.47;5129404;27;20108;-27
2022/01/24 03:13:35;;;;;;;0.30;0.30;;;;;;;18.30;41.60;102975.22;5141725;27;20519;-27
2022/01/24 03:15:51;;;;;;;0.30;0.30;;;;;;;18.30;41.60;102978.81;5127329;27;20056;-27
2022/01/24 03:18:17;;;;;;;0.20;0.20;;;;;;;18.29;41.67;102968.84;5144423;27;20031;-27
2022/01/24 03:20:44;;;;;;;0.30;0.30;;;;;;;18.29;41.73;102974.38;5143130;27;20489;-27
2022/01/24 03:23:11;;;;;;;0.30;0.30;;;;;;;18.30;41.52;102969.69;5142401;27;20095;-27
2022/01/24 03:25:36;;;;;;;0.30;0.30;;;;;;;18.29;41.60;102960.56;5148291;27;20035;-27
2022/01/24 03:28:04;;;;;;;0.30;0.30;;;;;;;18.30;41.55;102967.78;5146238;27;20058;-27
2022/01/24 03:30:30;;;;;;;0.30;0.30;;;;;;;18.31;41.52;102971.41;5124358;27;20690;-27
2022/01/24 03:32:56;;;;;;;0.30;0.30;;;;;;;18.29;41.55;102973.53;5140198;27;20375;-27
2022/01/24 03:35:22;;;;;;;0.30;0.30;;;;;;;18.30;41.67;102969.69;5142875;27;20114;-27
2022/01/24 03:37:47;;;;;;;0.30;0.30;;;;;;;18.30;41.63;102973.28;5145663;27;20074;-27
2022/01/24 03:40:13;;;;;;;0.30;0.30;;;;;;;18.30;41.53;102978.81;5125667;27;20087;-27
2022/01/24 03:42:39;;;;;;;0.30;0.30;;;;;;;18.29;41.52;102979.88;5143280;27;20043;-27
2022/01/24 03:45:08;;;;;;;0.30;0.30;;;;;;;18.29;41.57;102985.41;5144086;27;20184;-27
2022/01/24 03:50:18;;;;;;;0.30;0.30;;;;;;;18.30;41.48;102970.53;5175844;27;20616;-27
2022/01/24 03:52:44;;;;;;;0.30;0.30;;;;;;;18.30;41.67;102983.47;5162463;27;20038;-27
2022/01/24 03:55:10;;;;;;;0.30;0.30;;;;;;;18.29;41.45;102984.56;5165947;27;20098;-27
2022/01/24 03:57:36;;;;;;;0.32;0.32;;;;;;;18.28;41.53;102985.63;5147545;27;20042;-27
2022/01/24 04:00:04;;;;;;;0.28;0.28;;;;;;;18.29;41.44;102987.31;5166668;27;20111;-27
2022/01/24 04:02:30;;;;;;;0.20;0.20;;;;;;;18.29;41.62;102988.16;5146148;27;20476;-27
2022/01/24 04:04:56;;;;;;;0.30;0.30;;;;;;;18.29;41.53;102988.16;5166514;27;20038;-27
2022/01/24 04:07:21;;;;;;;0.40;0.40;;;;;;;18.29;41.62;102990.91;5166384;27;20043;-27
2022/01/24 04:09:48;;;;;;;0.30;0.30;;;;;;;18.29;41.48;102998.34;5166581;27;20042;-27
2022/01/24 04:12:14;;;;;;;0.30;0.30;;;;;;;18.30;41.59;103000.03;5164238;27;20042;-27
2022/01/24 04:14:54;;;;;;;0.30;0.30;;;;;;;18.30;41.41;102997.28;5148512;27;20050;-27
2022/01/24 04:17:24;;;;;;;0.30;0.30;;;;;;;18.30;41.53;102997.28;5167011;27;20046;-27
2022/01/24 04:22:35;;;;;;;0.22;0.22;;;;;;;18.31;41.59;102996.22;5164404;27;20205;-27
2022/01/24 04:25:04;;;;;;;0.30;0.30;;;;;;;18.31;41.43;102993.47;5151787;27;20478;-27
2022/01/24 04:27:30;;;;;;;0.30;0.30;;;;;;;18.29;41.52;102988.16;5151479;27;20537;-27
2022/01/24 04:29:56;;;;;;;0.30;0.30;;;;;;;18.28;41.48;102975.44;5131491;27;20043;-27
2022/01/24 04:32:22;;;;;;;0.30;0.30;;;;;;;18.29;41.59;102977.13;5134541;27;20050;-27
2022/01/24 04:34:48;;;;;;;0.30;0.30;;;;;;;18.28;41.59;102980.97;5150644;27;20039;-27
2022/01/24 04:37:15;;;;;;;0.30;0.30;;;;;;;18.29;41.51;102974.38;5148840;27;20040;-27
2022/01/24 04:39:40;;;;;;;0.30;0.30;;;;;;;18.30;41.38;102983.47;5147561;27;20147;-27
2022/01/24 04:42:11;;;;;;;0.30;0.30;;;;;;;18.30;41.48;102981.56;5151798;27;20086;-27
2022/01/24 04:45:11;;;;;;;0.30;0.30;;;;;;;18.30;41.35;102977.97;5153548;27;20057;-27
2022/01/24 04:47:32;;;;;;;0.20;0.20;;;;;;;18.29;41.54;102977.13;5140288;27;20104;-27
2022/01/24 04:52:59;;;;;;;0.30;0.30;;;;;;;18.30;41.62;102989.00;5134625;27;20072;-27
2022/01/24 04:55:25;;;;;;;0.30;0.30;;;;;;;18.29;41.63;102979.03;5147550;27;20448;-27
2022/01/24 04:57:52;;;;;;;0.30;0.30;;;;;;;18.30;41.57;102978.81;5149690;27;20039;-27
2022/01/24 05:00:17;;;;;;;0.30;0.30;;;;;;;18.30;41.53;102992.59;5150392;27;20091;-27
2022/01/24 05:02:43;;;;;;;0.30;0.30;;;;;;;18.30;41.67;102983.47;5150278;27;20051;-27
2022/01/24 05:05:14;;;;;;;0.38;0.38;;;;;;;18.30;41.41;102978.81;5150036;27;20042;-27
2022/01/24 05:07:39;;;;;;;0.30;0.30;;;;;;;18.29;41.52;102985.41;5137403;27;20525;-27
2022/01/24 05:10:17;;;;;;;0.30;0.30;;;;;;;18.29;41.54;102985.41;5150739;27;20614;-27
2022/01/24 05:21:36;;;;;;;0.30;0.30;;;;;;;18.29;41.59;102977.13;5149655;27;20134;-34
2022/01/24 05:23:38;;;;;;;0.30;0.30;;;;;;;18.29;41.62;102984.56;5133073;27;20497;-31
2022/01/24 05:26:06;;;;;;;0.35;0.35;;;;;;;18.30;41.66;102991.75;5164316;27;20472;-31
2022/01/24 05:28:33;;;;;;;0.30;0.30;;;;;;;18.30;41.60;102992.59;5143697;27;20137;-31
2022/01/24 05:30:58;;;;;;;0.30;0.30;;;;;;;18.29;41.58;102996.44;5162002;27;20046;-33
2022/01/24 05:33:25;;;;;;;0.30;0.30;;;;;;;18.29;41.66;102988.16;5128074;27;20095;-31
2022/01/24 05:35:50;;;;;;;0.30;0.30;;;;;;;18.29;41.59;102988.16;5164627;27;20048;-31
2022/01/24 05:38:17;;;;;;;0.30;0.30;;;;;;;18.30;41.51;102978.81;5146503;27;20046;-30
2022/01/24 05:40:44;;;;;;;0.28;0.28;;;;;;;18.30;41.60;102986.25;5128693;27;20047;-30
2022/01/24 05:43:09;;;;;;;0.30;0.30;;;;;;;18.30;41.57;102986.25;5146143;27;20050;-31
2022/01/24 05:45:35;;;;;;;0.20;0.20;;;;;;;18.30;41.51;102986.25;5146228;27;20507;-31
2022/01/24 05:48:01;;;;;;;0.30;0.30;;;;;;;18.30;41.58;102986.25;5164228;27;20043;-30
2022/01/24 05:50:27;;;;;;;0.20;0.20;;;;;;;18.31;41.57;102985.19;5166105;27;20122;-30
2022/01/24 05:52:53;;;;;;;0.30;0.30;;;;;;;18.29;41.63;102985.41;5160568;27;20034;-30
2022/01/24 05:55:18;;;;;;;0.30;0.30;;;;;;;18.30;41.57;102987.09;5164532;27;20038;-31
2022/01/24 05:57:44;;;;;;;0.30;0.30;;;;;;;18.29;41.50;102988.16;5164158;27;20400;-30
2022/01/24 06:00:12;;;;;;;0.30;0.30;;;;;;;18.30;41.49;102998.13;5162930;27;20050;-35
2022/01/24 06:02:38;;;;;;;0.20;0.20;;;;;;;18.31;41.46;102993.47;5144326;27;20097;-30
2022/01/24 06:05:04;;;;;;;0.40;0.40;;;;;;;18.30;41.53;102989.00;5144523;27;20043;-31
2022/01/24 06:07:30;;;;;;;0.30;0.30;;;;;;;18.31;41.39;102996.22;5165259;27;20086;-30
2022/01/24 06:09:56;;;;;;;0.30;0.30;;;;;;;18.30;41.60;102997.28;5165323;27;20051;-30
2022/01/24 06:12:22;;;;;;;0.30;0.30;;;;;;;18.29;41.49;102996.44;5162411;27;20047;-29
2022/01/24 06:14:48;;;;;;;0.30;0.30;;;;;;;18.30;41.53;102998.13;5164739;27;20038;-30
2022/01/24 06:17:15;;;;;;;0.30;0.30;;;;;;;18.30;41.39;103000.03;5164100;27;20409;-31
2022/01/24 06:19:40;;;;;;;0.30;0.30;;;;;;;18.29;41.63;103001.94;5144220;27;20051;-30
2022/01/24 06:22:06;;;;;;;0.32;0.32;;;;;;;18.31;41.40;103004.50;5137438;27;20104;-30
2022/01/24 06:24:32;;;;;;;0.30;0.30;;;;;;;18.31;41.58;102999.00;5141459;27;20047;-31
2022/01/24 06:27:14;;;;;;;0.30;0.30;;;;;;;18.30;41.53;103005.56;5123906;28;20706;-30
2022/01/24 06:29:39;;;;;;;0.30;0.30;;;;;;;18.30;41.50;103006.38;5122930;28;20049;-32
2022/01/24 06:32:05;;;;;;;0.30;0.30;;;;;;;18.31;41.41;103010.03;5121421;28;20040;-30
2022/01/24 06:34:31;;;;;;;0.30;0.30;;;;;;;18.30;41.47;103003.63;5126256;28;20035;-30
2022/01/24 06:36:57;;;;;;;0.22;0.22;;;;;;;18.30;41.52;103013.81;5125603;28;20062;-31
2022/01/24 06:39:22;;;;;;;0.30;0.30;;;;;;;18.30;41.48;103000.88;5124533;28;20156;-30
2022/01/24 06:42:04;;;;;;;0.30;0.30;;;;;;;18.32;41.49;103005.34;5121012;28;20381;-30
2022/01/24 06:44:30;;;;;;;0.30;0.30;;;;;;;18.30;41.48;103005.56;5127607;28;20039;-31
2022/01/24 06:46:55;;;;;;;0.20;0.20;;;;;;;18.30;41.60;103009.16;5127165;28;20073;-31
2022/01/24 06:49:21;;;;;;;0.30;0.30;;;;;;;18.32;41.42;103002.59;5122165;27;20100;-30
2022/01/24 06:51:46;;;;;;;0.30;0.30;;;;;;;18.31;41.52;102999.00;5125119;27;20050;-33
2022/01/24 06:54:12;;;;;;;0.30;0.30;;;;;;;18.32;41.42;102997.91;5120762;27;20497;-30
2022/01/24 06:56:38;;;;;;;0.35;0.35;;;;;;;18.32;41.48;103000.66;5119304;27;20031;-31
2022/01/24 06:59:03;;;;;;;0.30;0.30;;;;;;;18.30;41.44;103003.63;5119581;27;20058;-31
2022/01/24 07:01:29;;;;;;;0.30;0.30;;;;;;;18.32;41.59;102997.91;5117117;28;20137;-31
2022/01/24 07:03:55;;;;;;;0.32;0.32;;;;;;;18.30;41.41;102997.28;5116242;27;20055;-31
2022/01/24 07:06:21;;;;;;;0.30;0.30;;;;;;;18.31;41.75;102999.00;5117240;27;20051;-44
2022/01/24 07:08:46;;;;;;;0.30;0.30;;;;;;;18.33;41.37;102994.06;5118103;27;20036;-35
2022/01/24 07:11:13;;;;;;;0.30;0.30;;;;;;;18.35;41.21;103000.22;5120942;27;20126;-30
2022/01/24 07:13:39;;;;;;;0.30;0.30;;;;;;;18.35;41.18;102996.59;5122555;27;20126;-31
2022/01/24 07:16:06;;;;;;;0.30;0.30;;;;;;;18.34;41.14;102998.50;5119902;27;20054;-29
2022/01/24 07:21:09;;;;;;;0.30;0.30;;;;;;;18.34;41.55;102997.69;5159162;27;20679;-30
2022/01/24 07:23:35;;;;;;;0.30;0.30;;;;;;;18.33;41.39;102998.75;5136369;27;20047;-31
2022/01/24 07:26:01;;;;;;;0.30;0.30;;;;;;;18.33;41.59;103005.13;5140836;27;20144;-30
2022/01/24 07:28:26;;;;;;;0.30;0.30;;;;;;;18.33;41.36;102996.84;5116693;27;20806;-30
2022/01/24 07:30:52;;;;;;;0.30;0.30;;;;;;;18.34;41.27;102994.91;5132843;27;20059;-33
2022/01/24 07:33:18;;;;;;;0.20;0.20;;;;;;;18.34;41.37;103005.94;5130489;27;20051;-30
2022/01/24 07:35:44;;;;;;;0.20;0.20;;;;;;;18.34;41.20;103009.56;5131391;27;20051;-31
2022/01/24 07:38:10;;;;;;;0.30;0.30;;;;;;;18.34;41.18;103017.81;5115695;27;20051;-30
2022/01/24 07:40:41;;;;;;;0.30;0.30;;;;;;;18.34;41.41;103020.59;5137708;27;20066;-30
2022/01/24 07:43:10;;;;;;;0.20;0.20;;;;;;;18.29;40.61;103026.78;5100466;27;20059;-30
2022/01/24 07:45:37;;;;;;;0.30;0.30;;;;;;;18.37;41.03;103033.09;5137740;27;20047;-31
2022/01/24 07:48:03;;;;;;;0.30;0.30;;;;;;;18.38;40.95;103029.25;5137067;27;20091;-29
2022/01/24 07:50:29;;;;;;;0.30;0.30;;;;;;;18.38;40.85;103032.03;5132318;27;20778;-30
2022/01/24 07:52:55;;;;;;;0.30;0.30;;;;;;;18.38;41.11;103040.28;5136054;27;20038;-29
2022/01/24 07:55:22;;;;;;;0.20;0.20;;;;;;;18.38;41.22;103037.53;5134080;27;20043;-30
2022/01/24 07:57:48;;;;;;;0.30;0.30;;;;;;;18.38;41.05;103026.50;5109891;27;20054;-31
2022/01/24 08:00:14;;;;;;;0.30;0.30;;;;;;;18.39;41.01;103030.94;5126289;27;20119;-29
2022/01/24 08:02:40;;;;;;;0.20;0.20;;;;;;;18.38;41.18;103032.84;5109878;27;20058;-30
2022/01/24 08:05:08;;;;;;;0.30;0.30;;;;;;;18.39;41.19;103029.03;5124113;27;20043;-30
2022/01/24 08:07:34;;;;;;;0.30;0.30;;;;;;;18.39;41.17;103039.22;5109543;27;20047;-31
2022/01/24 08:10:00;;;;;;;0.30;0.30;;;;;;;18.40;41.12;103032.66;5124753;27;20050;-32
2022/01/24 08:12:26;;;;;;;0.30;0.30;;;;;;;18.41;41.08;103037.94;5128637;27;20482;-38
2022/01/24 08:14:52;;;;;;;0.30;0.30;;;;;;;18.45;40.50;103032.81;5137266;27;20078;-29
2022/01/24 08:17:18;;;;;;;0.30;0.30;;;;;;;18.49;40.75;103036.81;5129835;27;20657;-31
2022/01/24 08:19:45;;;;;;;0.20;0.20;;;;;;;18.49;40.90;103029.38;5133466;27;20073;-30
2022/01/24 08:22:12;;;;;;;0.25;0.25;;;;;;;18.49;40.93;103034.91;5114328;27;20051;-29
2022/01/24 08:24:40;;;;;;;0.30;0.30;;;;;;;18.49;40.78;103039.59;5128941;27;20489;-30
2022/01/24 08:27:06;;;;;;;0.30;0.30;;;;;;;18.50;40.96;103044.03;5135565;27;20565;-30
2022/01/24 08:29:32;;;;;;;0.30;0.30;;;;;;;18.50;40.85;103044.03;5131910;27;20500;-30
2022/01/24 08:31:57;;;;;;;0.20;0.20;;;;;;;18.50;40.95;103053.13;5117335;27;20047;-33
2022/01/24 08:34:23;;;;;;;0.30;0.30;;;;;;;18.51;40.85;103045.69;5112483;27;20099;-29
2022/01/24 08:36:49;;;;;;;0.30;0.30;;;;;;;18.52;40.88;103051.03;5124061;27;20100;-30
2022/01/24 08:39:14;;;;;;;0.28;0.28;;;;;;;18.52;40.88;103044.63;5116140;27;20040;-30
2022/01/24 08:42:02;;;;;;;0.30;0.30;;;;;;;18.58;40.51;103045.66;5090421;28;20448;-32
2022/01/24 08:45:43;;;;;;;0.30;0.30;;;;;;;18.64;40.21;103045.59;5109634;27;20047;-32
2022/01/24 08:47:11;;;;;;;0.30;0.30;;;;;;;18.64;39.29;103048.34;5098645;27;20416;-32
2022/01/24 08:49:58;;;;;;;0.30;0.30;;;;;;;18.68;39.35;103049.59;5101123;27;20055;-34
2022/01/24 08:52:25;;;;;;;0.30;0.30;;;;;;;18.71;39.03;103045.56;5085377;27;20043;-32
2022/01/24 08:55:10;;;;;;;0.30;0.30;;;;;;;18.74;38.60;103045.13;5076829;27;20047;-33
2022/01/24 08:57:36;;;;;;;0.30;0.30;;;;;;;18.76;38.92;103051.25;5112181;27;20046;-35
2022/01/24 09:00:03;;;;;;;0.40;0.40;;;;;;;18.80;38.32;103049.72;5112083;27;20051;-35
2022/01/24 09:02:29;;;;;;;0.30;0.30;;;;;;;18.78;38.71;103049.09;5085614;27;20051;-31
2022/01/24 09:04:55;;;;;;;0.30;0.30;;;;;;;18.73;38.37;103052.53;5116619;27;20038;-31
2022/01/24 09:07:21;;;;;;;0.28;0.28;;;;;;;18.75;38.51;103049.56;5112880;27;20095;-31
2022/01/24 09:09:46;;;;;;;0.30;0.30;;;;;;;18.76;38.67;103048.50;5113297;27;20043;-31
2022/01/24 09:12:12;;;;;;;0.30;0.30;;;;;;;18.76;38.97;103043.81;5101716;27;20053;-31
2022/01/24 09:14:40;;;;;;;0.40;0.40;;;;;;;18.75;39.09;103031.09;5100867;27;20048;-30
2022/01/24 09:17:05;;;;;;;0.30;0.30;;;;;;;18.78;38.99;103038.06;5106180;27;20099;-33
2022/01/24 09:19:31;;;;;;;0.20;0.20;;;;;;;18.77;39.14;103033.63;5094451;27;20971;-32
2022/01/24 09:21:57;;;;;;;0.30;0.30;;;;;;;18.78;39.14;103051.84;5105420;27;20172;-35
2022/01/24 09:24:22;;;;;;;0.30;0.30;;;;;;;18.78;38.97;103040.81;5110419;27;20044;-31
2022/01/24 09:26:48;;;;;;;0.30;0.30;;;;;;;18.78;39.08;103036.16;5111893;27;20043;-31
2022/01/24 09:29:14;;;;;;;0.30;0.30;;;;;;;18.79;39.29;103029.56;5109309;27;20054;-31
2022/01/24 09:31:40;;;;;;;0.30;0.30;;;;;;;18.80;39.19;103027.66;5111324;27;20418;-34
2022/01/24 09:34:05;;;;;;;0.25;0.25;;;;;;;18.81;39.37;103023.81;5109980;27;20044;-32
2022/01/24 09:36:31;;;;;;;0.20;0.20;;;;;;;18.81;39.35;103023.81;5107303;27;21248;-34
2022/01/24 09:38:57;;;;;;;0.30;0.30;;;;;;;18.80;39.36;103028.47;5089565;27;20067;-31
2022/01/24 09:41:22;;;;;;;0.30;0.30;;;;;;;18.82;39.43;103027.41;5109844;27;20088;-33
2022/01/24 09:43:48;;;;;;;0.30;0.30;;;;;;;18.82;39.28;103022.72;5094292;27;20043;-35
2022/01/24 09:46:14;;;;;;;0.30;0.30;;;;;;;18.82;39.24;103022.72;5109054;27;20048;-35
2022/01/24 09:48:41;;;;;;;0.20;0.20;;;;;;;18.83;39.56;103024.44;5106186;27;20067;-31
2022/01/24 09:51:07;;;;;;;0.30;0.30;;;;;;;18.83;39.34;103021.69;5094897;28;20595;-34
2022/01/24 09:53:33;;;;;;;0.20;0.20;;;;;;;18.84;39.46;103030.81;5097649;28;20063;-34
2022/01/24 09:56:03;;;;;;;0.30;0.30;;;;;;;18.84;39.39;103031.66;5114961;27;20078;-31
2022/01/24 09:58:30;;;;;;;0.30;0.30;;;;;;;18.83;39.46;103029.97;5111944;27;20051;-33
2022/01/24 10:00:58;;;;;;;0.30;0.30;;;;;;;18.84;39.42;103036.31;5097038;27;20053;-31
2022/01/24 10:03:25;;;;;;;0.20;0.20;;;;;;;18.83;39.35;103037.41;5109375;27;20051;-31
2022/01/24 10:06:05;;;;;;;0.30;0.30;;;;;;;18.83;39.37;103041.00;5101145;27;20071;-31
2022/01/24 10:08:32;;;;;;;0.30;0.30;;;;;;;18.82;39.69;103033.75;5097575;28;21015;-31
2022/01/24 10:11:03;;;;;;;0.20;0.20;;;;;;;18.82;39.60;103033.75;5111674;27;20083;-31
2022/01/24 10:16:58;;;;;;;0.20;0.20;;;;;;;18.81;39.80;103026.56;5081721;27;20078;-32
2022/01/24 10:19:22;;;;;;;0.20;0.20;;;;;;;18.81;39.57;103034.84;5088018;27;20055;-32
2022/01/24 10:22:00;;;;;;;0.30;0.30;;;;;;;18.81;39.87;103034.84;5113982;27;20035;-31
2022/01/24 10:27:24;;;;;;;0.30;0.30;;;;;;;18.87;39.57;103035.84;5154657;27;20205;-34
2022/01/24 10:29:59;;;;;;;0.30;0.30;;;;;;;18.94;39.25;103031.09;5136413;27;20049;-34
2022/01/24 10:32:47;;;;;;;0.30;0.30;;;;;;;18.92;38.73;103025.00;5156957;27;20432;-32
2022/01/24 10:35:38;;;;;;;0.30;0.30;;;;;;;18.92;38.64;103017.53;5139858;27;20047;-35
2022/01/24 10:38:28;;;;;;;0.30;0.30;;;;;;;18.89;38.80;103017.16;5150798;27;20290;-42
2022/01/24 10:41:19;;;;;;;0.20;0.20;;;;;;;18.91;38.93;103018.63;5136520;27;20048;-43
2022/01/24 10:43:42;;;;;;;;;;;;;;;18.89;39.06;103023.50;5132894;27;20050;-42
2022/01/24 10:46:09;;;;;;;0.30;0.30;;;;;;;18.86;39.25;103021.19;5141275;27;19927;-40
2022/01/24 10:48:40;;;;;;;0.30;0.30;;;;;;;18.87;39.54;103019.28;5136275;27;20049;-43
2022/01/24 10:51:13;;;;;;;0.30;0.30;;;;;;;18.87;39.45;103019.28;5150875;27;20640;-43
2022/01/24 10:53:42;;;;;;;0.20;0.20;;;;;;;18.86;39.58;103012.06;5111272;27;20047;-43
2022/01/24 10:56:29;;;;;;;0.20;0.20;;;;;;;18.87;39.35;103013.75;5153752;27;20564;-43
2022/01/24 10:59:01;;;;;;;0.20;0.20;;;;;;;18.86;39.45;103003.78;5133148;27;20141;-42
2022/01/24 11:01:32;;;;;;;0.30;0.30;;;;;;;18.86;39.48;103017.59;5130094;27;20050;-40
2022/01/24 11:04:00;;;;;;;0.20;0.20;;;;;;;19.04;39.62;103009.31;5133331;27;20047;-37
2022/01/24 11:06:28;;;;;;;0.20;0.20;;;;;;;18.87;38.14;103009.09;5156307;27;20134;-37
2022/01/24 11:09:10;;;;;;;0.20;0.20;;;;;;;18.92;38.56;103003.75;5153773;27;20364;-37
2022/01/24 11:11:36;;;;;;;0.30;0.30;;;;;;;18.93;38.88;103007.34;5135333;27;20118;-37
2022/01/24 11:14:01;;;;;;;0.20;0.20;;;;;;;18.91;38.95;103002.06;5147927;27;20135;-37
2022/01/24 11:16:27;;;;;;;0.30;0.30;;;;;;;18.91;38.91;103004.81;5157832;27;20042;-36
2022/01/24 11:18:53;;;;;;;0.20;0.20;;;;;;;18.91;39.05;103009.47;5160431;27;20048;-37
2022/01/24 11:21:20;;;;;;;0.20;0.20;;;;;;;18.91;39.39;103009.47;5157591;27;20042;-36
2022/01/24 11:23:47;;;;;;;0.20;0.20;;;;;;;18.91;39.17;103013.09;5154106;27;20445;-36
2022/01/24 11:26:14;;;;;;;0.20;0.20;;;;;;;18.93;39.32;102999.06;5155421;27;20134;-37
2022/01/24 11:28:40;;;;;;;0.20;0.20;;;;;;;18.91;39.29;102998.44;5154011;27;20046;-37
2022/01/24 11:31:25;;;;;;;0.30;0.30;;;;;;;18.91;39.37;102991.00;5156992;27;20989;-37
2022/01/24 11:34:15;;;;;;;0.30;0.30;;;;;;;18.75;36.46;102989.69;5144177;27;20067;-42
2022/01/24 11:36:43;;;;;;;0.30;0.30;;;;;;;18.94;38.58;102984.16;5131793;27;20071;-37
2022/01/24 11:39:08;;;;;;;0.20;0.20;;;;;;;19.00;38.62;102975.00;5115072;27;20087;-40
2022/01/24 11:41:37;;;;;;;0.20;0.20;;;;;;;18.98;38.79;102977.97;5124099;27;20043;-37
2022/01/24 11:44:10;;;;;;;0.20;0.20;;;;;;;19.00;38.84;102980.50;5111052;27;20047;-39
2022/01/24 11:46:45;;;;;;;0.30;0.30;;;;;;;19.00;38.70;102978.59;5130839;27;20468;-40
2022/01/24 11:49:32;;;;;;;0.30;0.30;;;;;;;19.00;38.80;102973.06;5133598;27;20442;-36
2022/01/24 11:52:05;;;;;;;0.30;0.30;;;;;;;19.01;39.05;102976.66;5129547;27;20125;-40
2022/01/24 11:54:55;;;;;;;0.20;0.20;;;;;;;19.01;39.15;102980.28;5112542;27;20039;-38
2022/01/24 12:02:49;;;;;;;0.20;0.20;;;;;;;19.05;39.01;102984.25;5165043;27;20261;-37
2022/01/24 12:05:22;;;;;;;0.30;0.30;;;;;;;19.07;39.13;102977.66;5149754;27;20035;-38
2022/01/24 12:08:02;;;;;;;;;;;;;;;19.07;38.80;102974.88;5155102;27;20038;-38
2022/01/24 12:10:47;;;;;;;0.30;0.30;;;;;;;19.06;38.93;102963.00;5118833;27;19969;-39
2022/01/24 12:13:20;;;;;;;0.28;0.28;;;;;;;19.08;38.71;102968.28;5142486;27;20070;-39
2022/01/24 12:15:52;;;;;;;0.20;0.20;;;;;;;19.06;38.93;102965.78;5144499;27;20054;-39
2022/01/24 12:21:20;;;;;;;0.30;0.30;;;;;;;19.04;38.94;102971.53;5151716;27;20209;-35
2022/01/24 12:23:48;;;;;;;0.20;0.20;;;;;;;19.04;39.07;102963.25;5134191;27;20062;-35
2022/01/24 12:26:43;;;;;;;0.28;0.28;;;;;;;19.03;38.69;102967.06;5114704;27;20112;-34
2022/01/24 12:29:15;;;;;;;0.30;0.30;;;;;;;19.03;39.01;102957.94;5127082;27;20146;-36
2022/01/24 12:31:51;;;;;;;0.20;0.20;;;;;;;19.02;39.06;102965.38;5122150;27;20051;-37
2022/01/24 12:34:22;;;;;;;0.20;0.20;;;;;;;18.99;39.00;102959.47;5119279;27;20135;-36
2022/01/24 12:36:51;;;;;;;0.20;0.20;;;;;;;19.00;39.02;102961.19;5113975;27;20045;-34
2022/01/24 12:42:06;;;;;;;0.30;0.30;;;;;;;18.97;38.91;102964.41;5148493;27;20201;-36
2022/01/24 12:47:18;;;;;;;0.30;0.30;;;;;;;18.95;39.24;102949.97;5144926;27;20210;-34
2022/01/24 12:49:45;;;;;;;0.20;0.20;;;;;;;18.94;39.11;102943.59;5143417;27;20530;-36
2022/01/24 12:52:19;;;;;;;0.20;0.20;;;;;;;18.94;39.08;102943.59;5142915;27;20305;-34
2022/01/24 12:54:49;;;;;;;0.20;0.20;;;;;;;18.93;38.98;102941.91;5127160;27;20404;-36
2022/01/24 12:57:17;;;;;;;0.20;0.20;;;;;;;18.93;39.13;102955.72;5138626;27;20487;-37
2022/01/24 13:00:01;;;;;;;0.20;0.20;;;;;;;18.94;39.10;102945.53;5131360;27;20049;-37
2022/01/24 13:02:29;;;;;;;0.30;0.30;;;;;;;18.94;38.93;102949.13;5152556;27;20087;-37
2022/01/24 13:05:16;;;;;;;0.20;0.20;;;;;;;18.98;38.81;102955.03;5148331;27;20066;-39